Time;durP1;ratioP1;P1;durP2;ratioP2;P2;SDS_P1;SDS_P2;PMS_P1;PMS_P2;Temp;Humidity;BMP_temperature;BMP_pressure;BME280_temperature;BME280_humidity;BME280_pressure;Samples;Min_cycle;Max_cycle;Signal;HPM_P1;HPM_P2
2022/04/08 00:00:32;;;;;;;7.93;2.00;;;6.40;99.90;;;;;;5029425;28;20050;-67
2022/04/08 00:02:57;;;;;;;8.05;1.80;;;6.40;99.90;;;;;;5036465;28;20037;-67
2022/04/08 00:05:23;;;;;;;2.67;1.20;;;6.40;99.90;;;;;;5049551;28;20488;-67
2022/04/08 00:07:48;;;;;;;14.43;2.42;;;6.30;99.90;;;;;;5050179;28;20091;-67
2022/04/08 00:10:14;;;;;;;7.93;1.13;;;6.20;99.90;;;;;;5028123;28;20397;-67
2022/04/08 00:12:40;;;;;;;7.95;1.67;;;6.20;99.90;;;;;;5032484;28;20049;-67
2022/04/08 00:15:06;;;;;;;8.32;2.20;;;6.20;99.90;;;;;;5050346;28;20047;-67
2022/04/08 00:17:32;;;;;;;8.35;1.65;;;6.20;99.90;;;;;;5039072;28;20077;-67
2022/04/08 00:19:57;;;;;;;18.15;2.35;;;6.20;99.90;;;;;;5031731;28;20081;-67
2022/04/08 00:22:23;;;;;;;12.23;2.00;;;6.20;99.90;;;;;;5038252;28;20133;-67
2022/04/08 00:24:50;;;;;;;11.73;2.10;;;6.20;99.90;;;;;;5037778;28;20073;-67
2022/04/08 00:27:15;;;;;;;10.18;2.33;;;6.10;99.90;;;;;;5014111;28;20045;-67
2022/04/08 00:29:41;;;;;;;13.93;2.15;;;6.00;99.90;;;;;;5019602;28;20082;-67
2022/04/08 00:32:07;;;;;;;16.60;2.35;;;5.90;99.90;;;;;;5029461;28;20041;-67
2022/04/08 00:34:32;;;;;;;14.93;1.98;;;5.80;99.90;;;;;;5042426;28;20053;-67
2022/04/08 00:36:58;;;;;;;15.35;2.40;;;5.90;99.90;;;;;;5035895;28;20045;-67
2022/04/08 00:39:24;;;;;;;6.47;1.33;;;6.00;99.90;;;;;;5038869;28;20037;-67
2022/04/08 00:41:50;;;;;;;9.60;2.00;;;5.90;99.90;;;;;;5026249;28;20037;-67
2022/04/08 00:44:16;;;;;;;13.18;2.65;;;5.90;99.90;;;;;;5029591;28;20056;-67
2022/04/08 00:46:43;;;;;;;10.80;3.28;;;6.00;99.90;;;;;;5025319;28;20049;-67
2022/04/08 00:49:11;;;;;;;12.45;2.60;;;5.90;99.90;;;;;;5010858;28;20045;-67
2022/04/08 00:51:37;;;;;;;23.48;2.60;;;6.00;99.90;;;;;;5028494;28;20049;-67
2022/04/08 00:54:03;;;;;;;13.15;1.90;;;6.00;99.90;;;;;;5009811;28;20065;-67
2022/04/08 00:56:31;;;;;;;19.38;2.58;;;6.10;99.90;;;;;;5011626;28;20041;-67
2022/04/08 00:58:57;;;;;;;13.55;3.30;;;6.10;99.90;;;;;;5017275;28;20053;-67
2022/04/08 01:01:24;;;;;;;14.05;2.20;;;6.10;99.90;;;;;;5034739;28;20116;-67
2022/04/08 01:03:52;;;;;;;11.05;2.50;;;6.00;99.90;;;;;;5046572;28;20041;-67
2022/04/08 01:06:21;;;;;;;18.60;3.00;;;6.00;99.90;;;;;;5027943;28;20042;-67
2022/04/08 01:08:49;;;;;;;27.92;4.03;;;6.10;99.90;;;;;;5026881;28;20054;-68
2022/04/08 01:11:15;;;;;;;18.60;3.30;;;6.10;99.90;;;;;;5040427;28;20072;-67
2022/04/08 01:13:41;;;;;;;19.85;4.47;;;6.00;99.90;;;;;;5047572;28;20056;-67
2022/04/08 01:16:07;;;;;;;22.08;3.08;;;6.00;99.90;;;;;;5042995;28;20042;-67
2022/04/08 01:18:33;;;;;;;11.40;3.38;;;6.00;99.90;;;;;;5009623;28;20050;-67
2022/04/08 01:21:05;;;;;;;20.17;3.55;;;6.00;99.90;;;;;;5026926;28;20045;-67
2022/04/08 01:23:34;;;;;;;13.57;3.05;;;5.90;99.90;;;;;;5044488;28;20366;-67
2022/04/08 01:26:03;;;;;;;14.68;2.88;;;6.00;99.90;;;;;;5020513;28;20038;-68
2022/04/08 01:28:28;;;;;;;23.33;3.35;;;5.90;99.90;;;;;;5009548;28;20046;-68
2022/04/08 01:30:55;;;;;;;22.15;3.47;;;6.00;99.90;;;;;;5019852;28;20507;-68
2022/04/08 01:33:20;;;;;;;17.73;2.50;;;5.90;99.90;;;;;;5038459;28;20124;-68
2022/04/08 01:35:46;;;;;;;13.30;2.85;;;6.00;99.90;;;;;;5034401;28;20123;-68
2022/04/08 01:38:11;;;;;;;22.23;3.78;;;6.00;99.90;;;;;;5042591;28;20041;-68
2022/04/08 01:40:37;;;;;;;17.17;5.22;;;6.00;99.90;;;;;;5028041;28;20100;-68
2022/04/08 01:43:02;;;;;;;20.33;3.58;;;6.00;99.90;;;;;;5048068;28;20554;-67
2022/04/08 01:45:28;;;;;;;15.45;2.72;;;6.10;99.90;;;;;;5039570;28;20049;-68
2022/04/08 01:47:53;;;;;;;21.70;4.25;;;6.00;99.90;;;;;;5016235;28;20129;-68
2022/04/08 01:50:20;;;;;;;18.75;3.08;;;6.10;99.90;;;;;;5018164;28;20084;-67
2022/04/08 01:52:46;;;;;;;8.75;1.88;;;6.10;99.90;;;;;;5041123;28;20048;-67
2022/04/08 01:55:12;;;;;;;11.45;2.58;;;5.50;99.90;;;;;;5014925;28;20129;-67
2022/04/08 01:57:38;;;;;;;13.88;2.60;;;5.30;99.90;;;;;;5014104;28;20168;-67
2022/04/08 02:00:05;;;;;;;17.48;2.10;;;5.30;99.90;;;;;;5021278;28;20587;-67
2022/04/08 02:02:30;;;;;;;10.40;2.03;;;5.30;99.90;;;;;;5022000;28;20476;-67
2022/04/08 02:04:56;;;;;;;12.68;2.67;;;5.20;99.90;;;;;;5027776;28;20052;-67
2022/04/08 02:07:21;;;;;;;11.23;2.13;;;5.10;99.90;;;;;;5049180;28;20045;-67
2022/04/08 02:09:47;;;;;;;7.85;1.73;;;5.00;99.90;;;;;;5045021;28;20064;-66
2022/04/08 02:12:13;;;;;;;12.52;2.20;;;5.20;99.90;;;;;;5025407;28;20100;-67
2022/04/08 02:14:38;;;;;;;10.88;1.95;;;5.20;99.90;;;;;;5025429;28;20073;-67
2022/04/08 02:17:04;;;;;;;17.25;2.83;;;5.30;99.90;;;;;;5022178;28;20116;-67
2022/04/08 02:19:30;;;;;;;29.98;3.63;;;5.30;99.90;;;;;;5052438;28;20392;-67
2022/04/08 02:21:57;;;;;;;16.38;3.20;;;5.40;99.90;;;;;;5048422;28;20037;-67
2022/04/08 02:24:24;;;;;;;23.63;4.47;;;5.40;99.90;;;;;;5035099;28;20081;-67
2022/04/08 02:26:50;;;;;;;22.73;3.65;;;5.50;99.90;;;;;;5033194;28;20190;-67
2022/04/08 02:29:15;;;;;;;25.02;4.25;;;5.40;99.90;;;;;;5016562;28;20499;-67
2022/04/08 02:31:41;;;;;;;22.42;5.43;;;5.50;99.90;;;;;;5023091;28;20071;-67
2022/04/08 02:34:06;;;;;;;24.90;3.88;;;5.60;99.90;;;;;;5051016;28;20064;-67
2022/04/08 02:36:32;;;;;;;15.02;2.63;;;5.60;99.90;;;;;;5033827;28;20404;-67
2022/04/08 02:38:58;;;;;;;17.05;3.83;;;5.60;99.90;;;;;;5031669;28;20049;-67
2022/04/08 02:41:23;;;;;;;21.67;3.80;;;5.60;99.90;;;;;;5049797;28;20112;-67
2022/04/08 02:43:49;;;;;;;29.02;3.78;;;5.50;99.90;;;;;;5031644;28;20057;-67
2022/04/08 02:46:14;;;;;;;20.63;3.47;;;5.60;99.90;;;;;;5034536;28;20037;-67
2022/04/08 02:48:40;;;;;;;20.15;2.97;;;5.60;99.90;;;;;;5032071;28;20055;-67
2022/04/08 02:51:05;;;;;;;22.60;4.32;;;5.60;99.90;;;;;;5014177;28;20038;-67
2022/04/08 02:53:31;;;;;;;25.50;4.13;;;5.50;99.90;;;;;;5028446;28;20061;-67
2022/04/08 02:55:57;;;;;;;13.98;4.07;;;5.60;99.90;;;;;;5046824;28;20386;-67
2022/04/08 02:58:22;;;;;;;24.80;4.78;;;5.70;99.90;;;;;;5027162;28;20052;-67
2022/04/08 03:00:48;;;;;;;11.40;2.67;;;5.70;99.90;;;;;;5019545;28;20054;-67
2022/04/08 03:03:14;;;;;;;16.67;2.88;;;5.80;99.90;;;;;;5048233;28;20080;-67
2022/04/08 03:05:39;;;;;;;21.13;3.25;;;5.80;99.90;;;;;;5032997;28;20096;-67
2022/04/08 03:08:05;;;;;;;11.38;2.20;;;5.90;99.90;;;;;;5028154;28;20513;-67
2022/04/08 03:10:31;;;;;;;11.65;2.50;;;5.90;99.90;;;;;;5018872;28;20040;-67
2022/04/08 03:12:57;;;;;;;11.88;1.85;;;5.90;99.90;;;;;;5012532;28;20065;-67
2022/04/08 03:15:22;;;;;;;8.45;1.42;;;5.70;99.90;;;;;;5045393;28;20029;-67
2022/04/08 03:17:51;;;;;;;15.98;2.00;;;5.40;99.90;;;;;;5023921;28;20564;-67
2022/04/08 03:20:17;;;;;;;10.15;1.30;;;5.00;99.90;;;;;;5031204;28;20053;-67
2022/04/08 03:22:42;;;;;;;8.73;1.42;;;4.90;99.90;;;;;;5033439;28;20044;-67
2022/04/08 03:25:08;;;;;;;4.57;0.75;;;4.80;99.90;;;;;;5024739;28;20128;-67
2022/04/08 03:27:33;;;;;;;5.80;0.75;;;4.80;99.90;;;;;;5029241;28;20412;-67
2022/04/08 03:29:59;;;;;;;3.58;0.93;;;4.70;99.90;;;;;;5030900;28;20096;-67
2022/04/08 03:32:24;;;;;;;4.35;0.88;;;4.70;99.90;;;;;;5031778;28;20038;-67
2022/04/08 03:34:57;;;;;;;3.55;0.73;;;4.70;99.90;;;;;;5013797;28;20088;-67
2022/04/08 03:37:23;;;;;;;5.35;1.13;;;4.70;99.90;;;;;;5025813;28;20052;-67
2022/04/08 03:39:49;;;;;;;5.57;0.90;;;4.70;99.90;;;;;;5033853;28;20049;-67
2022/04/08 03:42:14;;;;;;;3.90;0.93;;;4.70;99.90;;;;;;5025665;28;20397;-67
2022/04/08 03:44:40;;;;;;;2.67;0.80;;;4.70;99.90;;;;;;5015197;28;20048;-67
2022/04/08 03:47:06;;;;;;;8.20;1.48;;;4.70;99.90;;;;;;5012866;28;20042;-67
2022/04/08 03:49:35;;;;;;;8.57;2.05;;;4.70;99.90;;;;;;5017622;28;20045;-67
2022/04/08 03:52:04;;;;;;;10.55;1.48;;;4.70;99.90;;;;;;5037495;28;20457;-67
2022/04/08 03:54:30;;;;;;;5.00;1.30;;;4.70;99.90;;;;;;5015059;28;20064;-68
2022/04/08 03:56:55;;;;;;;8.43;1.85;;;4.60;99.90;;;;;;5048596;28;20056;-67
2022/04/08 03:59:22;;;;;;;5.70;1.65;;;4.70;99.90;;;;;;5024414;28;20045;-68
2022/04/08 04:01:49;;;;;;;5.43;1.00;;;4.70;99.90;;;;;;5027650;28;20485;-68
2022/04/08 04:04:15;;;;;;;11.45;1.65;;;4.70;99.90;;;;;;5019330;28;20052;-68
2022/04/08 04:06:40;;;;;;;10.50;2.33;;;4.80;99.90;;;;;;5025022;28;20053;-68
2022/04/08 04:09:06;;;;;;;10.15;1.90;;;4.90;99.90;;;;;;5047705;28;20190;-68
2022/04/08 04:11:33;;;;;;;8.80;2.05;;;4.80;99.90;;;;;;5037950;28;20041;-67
2022/04/08 04:13:59;;;;;;;10.35;1.90;;;4.70;99.90;;;;;;5020136;28;20071;-68
2022/04/08 04:16:26;;;;;;;10.52;2.17;;;4.60;99.90;;;;;;5018835;28;20060;-68
2022/04/08 04:18:51;;;;;;;9.52;1.75;;;4.60;99.90;;;;;;5017589;28;20389;-68
2022/04/08 04:21:17;;;;;;;4.22;1.10;;;4.60;99.90;;;;;;5029221;28;20033;-68
2022/04/08 04:23:42;;;;;;;4.25;1.10;;;4.60;99.90;;;;;;5041048;28;20638;-68
2022/04/08 04:26:08;;;;;;;5.25;1.25;;;4.70;99.90;;;;;;5043120;28;20045;-68
2022/04/08 04:28:34;;;;;;;3.63;1.52;;;4.60;99.90;;;;;;5027244;28;20500;-67
2022/04/08 04:30:59;;;;;;;2.35;1.02;;;4.70;99.90;;;;;;5026592;28;20485;-67
2022/04/08 04:33:28;;;;;;;4.85;1.30;;;4.80;99.90;;;;;;5029844;28;20120;-67
2022/04/08 04:35:54;;;;;;;7.40;1.38;;;4.80;99.90;;;;;;5041559;28;20045;-67
2022/04/08 04:38:19;;;;;;;7.55;1.02;;;4.80;99.90;;;;;;5028797;28;20049;-67
2022/04/08 04:40:45;;;;;;;5.25;1.20;;;4.80;99.90;;;;;;5025787;28;20037;-68
2022/04/08 04:43:10;;;;;;;2.88;1.23;;;4.80;99.90;;;;;;5031463;28;20048;-67
2022/04/08 04:45:38;;;;;;;6.65;1.10;;;4.80;99.90;;;;;;5027325;28;20055;-67
2022/04/08 04:48:05;;;;;;;10.30;1.13;;;4.80;99.90;;;;;;5014208;28;20798;-67
2022/04/08 04:50:31;;;;;;;7.93;1.45;;;4.80;99.90;;;;;;5029874;28;20052;-67
2022/04/08 04:52:56;;;;;;;2.92;1.23;;;4.80;99.90;;;;;;5049735;28;20496;-68
2022/04/08 04:55:22;;;;;;;10.93;2.17;;;4.80;99.90;;;;;;5029280;28;20050;-68
2022/04/08 04:57:47;;;;;;;5.75;1.10;;;4.70;99.90;;;;;;5021076;28;20038;-68
2022/04/08 05:00:13;;;;;;;5.70;1.10;;;4.80;99.90;;;;;;5030930;28;20107;-67
2022/04/08 05:02:39;;;;;;;2.97;1.40;;;4.80;99.90;;;;;;5040857;28;20052;-68
2022/04/08 05:05:06;;;;;;;5.78;1.20;;;4.70;99.90;;;;;;5031601;28;20049;-68
2022/04/08 05:07:32;;;;;;;8.20;1.88;;;4.70;99.90;;;;;;5010694;28;20073;-68
2022/04/08 05:09:57;;;;;;;10.63;1.50;;;4.70;99.90;;;;;;5031875;28;20096;-68
2022/04/08 05:12:23;;;;;;;7.13;1.50;;;4.70;99.90;;;;;;5037592;28;20060;-68
2022/04/08 05:14:48;;;;;;;10.65;1.60;;;4.70;99.90;;;;;;5014269;28;20386;-68
2022/04/08 05:17:14;;;;;;;6.07;0.98;;;4.80;99.90;;;;;;5027985;28;20545;-68
2022/04/08 05:19:39;;;;;;;5.50;1.30;;;4.90;99.90;;;;;;5033672;28;20057;-68
2022/04/08 05:22:05;;;;;;;2.22;1.00;;;4.80;99.90;;;;;;5023378;28;20141;-68
2022/04/08 05:24:30;;;;;;;12.10;1.50;;;4.90;99.90;;;;;;5044524;28;20136;-68
2022/04/08 05:26:56;;;;;;;5.25;1.98;;;4.80;99.90;;;;;;5032553;28;20046;-68
2022/04/08 05:29:21;;;;;;;13.85;2.03;;;4.90;99.90;;;;;;5019825;28;20048;-67
2022/04/08 05:31:47;;;;;;;10.05;1.88;;;4.90;99.90;;;;;;5037016;28;20041;-68
2022/04/08 05:34:13;;;;;;;14.40;3.10;;;4.90;99.90;;;;;;5025397;28;20090;-68
2022/04/08 05:36:39;;;;;;;10.23;1.80;;;4.90;99.90;;;;;;5033966;28;20488;-68
2022/04/08 05:39:04;;;;;;;13.35;2.05;;;5.00;99.90;;;;;;5049347;28;20076;-68
2022/04/08 05:41:30;;;;;;;12.70;2.00;;;4.90;99.90;;;;;;5025052;28;20041;-68
2022/04/08 05:43:55;;;;;;;14.93;1.98;;;4.90;99.90;;;;;;5047412;28;20053;-68
2022/04/08 05:46:21;;;;;;;11.20;2.00;;;4.90;99.90;;;;;;5019255;28;20482;-67
2022/04/08 05:48:46;;;;;;;11.88;3.08;;;5.00;99.90;;;;;;5029392;28;20056;-67
2022/04/08 05:51:12;;;;;;;16.77;3.10;;;5.00;99.90;;;;;;5034023;28;20049;-68
2022/04/08 05:53:38;;;;;;;8.68;2.30;;;5.10;99.90;;;;;;5014941;28;20058;-68
2022/04/08 05:56:04;;;;;;;19.33;3.65;;;5.20;99.90;;;;;;5023022;28;20050;-68
2022/04/08 05:58:30;;;;;;;14.45;2.28;;;5.20;99.90;;;;;;5019436;28;20044;-67
2022/04/08 06:00:56;;;;;;;16.05;2.38;;;5.30;99.90;;;;;;5038786;28;20041;-68
2022/04/08 06:03:21;;;;;;;14.20;2.95;;;5.30;99.90;;;;;;5024509;28;20447;-67
2022/04/08 06:05:47;;;;;;;14.77;2.50;;;5.40;99.90;;;;;;5017657;28;20045;-67
2022/04/08 06:08:12;;;;;;;13.73;3.75;;;5.40;99.90;;;;;;5028802;28;20504;-67
2022/04/08 06:10:38;;;;;;;12.15;3.13;;;5.40;99.90;;;;;;5027703;28;20045;-66
2022/04/08 06:13:04;;;;;;;15.13;2.47;;;5.60;99.90;;;;;;5011954;28;20046;-68
2022/04/08 06:15:31;;;;;;;12.10;2.90;;;5.60;99.90;;;;;;5018218;28;20139;-68
2022/04/08 06:17:57;;;;;;;14.15;2.58;;;5.70;99.90;;;;;;5022536;28;20057;-68
2022/04/08 06:20:24;;;;;;;23.92;3.20;;;5.90;99.90;;;;;;5020294;28;20494;-68
2022/04/08 06:22:49;;;;;;;12.95;3.13;;;6.00;99.90;;;;;;5022863;28;20180;-68
2022/04/08 06:25:17;;;;;;;6.88;1.42;;;6.00;99.90;;;;;;5022707;28;20144;-68
2022/04/08 06:27:47;;;;;;;8.02;2.25;;;6.00;99.90;;;;;;5044484;28;20049;-68
2022/04/08 06:30:17;;;;;;;5.40;1.27;;;5.80;99.90;;;;;;5019263;28;20049;-68
2022/04/08 06:32:43;;;;;;;6.80;1.50;;;5.80;99.90;;;;;;5029484;28;20034;-68
2022/04/08 06:35:08;;;;;;;4.75;1.85;;;5.80;99.90;;;;;;5019133;28;20042;-68
2022/04/08 06:37:34;;;;;;;11.60;2.38;;;5.70;99.90;;;;;;5029463;28;20424;-68
2022/04/08 06:40:08;;;;;;;13.57;2.55;;;5.70;99.90;;;;;;5032336;28;20052;-68
2022/04/08 06:42:34;;;;;;;10.77;1.50;;;5.80;99.90;;;;;;5050646;28;20052;-68
2022/04/08 06:45:00;;;;;;;7.75;1.50;;;5.70;99.90;;;;;;5036956;28;20918;-68
2022/04/08 06:47:26;;;;;;;10.82;1.52;;;5.80;99.90;;;;;;5022499;28;20092;-68
2022/04/08 06:49:52;;;;;;;4.55;1.42;;;5.80;99.90;;;;;;5012843;28;20433;-68
2022/04/08 06:52:17;;;;;;;6.43;1.50;;;6.00;99.90;;;;;;5013718;28;20173;-68
2022/04/08 06:54:43;;;;;;;6.63;1.83;;;6.10;99.90;;;;;;5025643;28;20100;-68
2022/04/08 06:57:08;;;;;;;13.25;2.58;;;6.10;99.90;;;;;;5041354;28;20041;-68
2022/04/08 06:59:35;;;;;;;17.98;1.95;;;6.20;99.90;;;;;;5032618;28;20041;-68
2022/04/08 07:02:00;;;;;;;7.47;2.05;;;6.40;99.90;;;;;;5037307;28;20447;-68
2022/04/08 07:04:26;;;;;;;8.88;1.50;;;6.50;99.90;;;;;;5044468;28;20045;-68
2022/04/08 07:06:52;;;;;;;15.05;2.22;;;6.60;99.90;;;;;;5021107;28;20041;-68
2022/04/08 07:09:18;;;;;;;14.27;2.33;;;6.50;99.90;;;;;;5022755;28;20086;-68
2022/04/08 07:11:43;;;;;;;10.23;1.95;;;6.30;99.90;;;;;;5038421;28;20507;-68
2022/04/08 07:14:09;;;;;;;6.13;1.73;;;6.40;99.90;;;;;;5038901;28;20691;-68
2022/04/08 07:16:34;;;;;;;6.93;1.75;;;6.50;99.90;;;;;;5018505;28;20050;-68
2022/04/08 07:19:00;;;;;;;6.13;1.65;;;6.50;99.90;;;;;;5017824;28;20046;-68
2022/04/08 07:21:26;;;;;;;10.25;2.35;;;6.60;99.90;;;;;;5026510;28;20033;-68
2022/04/08 07:23:51;;;;;;;10.75;1.70;;;6.50;99.90;;;;;;5034244;28;20042;-68
2022/04/08 07:26:20;;;;;;;14.05;2.00;;;6.60;99.90;;;;;;5013770;28;20068;-68
2022/04/08 07:28:46;;;;;;;7.38;1.42;;;6.60;99.90;;;;;;5016075;28;20485;-69
2022/04/08 07:31:12;;;;;;;10.73;1.90;;;6.70;99.90;;;;;;5019517;28;20191;-68
2022/04/08 07:33:38;;;;;;;7.10;1.60;;;6.80;99.90;;;;;;5042660;28;20792;-68
2022/04/08 07:36:04;;;;;;;5.40;1.27;;;6.80;99.90;;;;;;5024470;28;20044;-68
2022/04/08 07:38:30;;;;;;;9.30;2.10;;;6.90;99.90;;;;;;5018307;28;20515;-69
2022/04/08 07:40:57;;;;;;;5.22;1.42;;;6.90;99.90;;;;;;5040001;28;20060;-68
2022/04/08 07:43:23;;;;;;;11.82;1.90;;;6.90;99.90;;;;;;5026696;28;20044;-68
2022/04/08 07:45:49;;;;;;;9.63;2.42;;;7.10;99.90;;;;;;5029135;28;20479;-68
2022/04/08 07:48:15;;;;;;;10.82;1.75;;;7.10;99.90;;;;;;5033527;28;20404;-68
2022/04/08 07:50:41;;;;;;;6.75;1.27;;;7.00;99.90;;;;;;5031624;28;20100;-68
2022/04/08 07:53:06;;;;;;;6.25;1.50;;;7.10;99.90;;;;;;5035620;28;20064;-68
2022/04/08 07:55:32;;;;;;;8.35;1.30;;;7.10;99.90;;;;;;5030188;28;20129;-68
2022/04/08 07:57:58;;;;;;;10.30;1.80;;;7.10;99.90;;;;;;5035492;28;20044;-68
2022/04/08 08:00:28;;;;;;;8.18;1.20;;;7.20;99.90;;;;;;5015588;28;20045;-69
2022/04/08 08:02:55;;;;;;;9.73;2.13;;;7.30;99.90;;;;;;5025713;28;20057;-69
2022/04/08 08:05:21;;;;;;;9.48;1.92;;;7.40;99.90;;;;;;5018161;28;20394;-68
2022/04/08 08:07:51;;;;;;;10.45;2.50;;;7.50;99.90;;;;;;5021129;28;20041;-68
2022/04/08 08:10:28;;;;;;;9.07;2.55;;;7.60;99.90;;;;;;5014233;28;20107;-68
2022/04/08 08:12:54;;;;;;;3.67;0.98;;;7.60;99.90;;;;;;5027715;28;20084;-68
2022/04/08 08:15:21;;;;;;;4.57;1.23;;;7.70;99.90;;;;;;5024396;28;20046;-68
2022/04/08 08:17:48;;;;;;;10.13;1.83;;;7.80;99.90;;;;;;5012365;28;20037;-68
2022/04/08 08:20:15;;;;;;;7.72;2.13;;;8.00;99.90;;;;;;5010572;28;20046;-68
2022/04/08 08:22:41;;;;;;;10.70;2.22;;;8.00;99.90;;;;;;5010446;28;20038;-68
2022/04/08 08:25:07;;;;;;;11.82;1.92;;;7.90;99.90;;;;;;5011033;28;20049;-68
2022/04/08 08:28:01;;;;;;;8.82;1.38;;;7.80;99.90;;;;;;5015315;28;20416;-68
2022/04/08 08:30:31;;;;;;;6.63;1.73;;;8.30;99.90;;;;;;5030219;28;20048;-68
2022/04/08 08:32:58;;;;;;;5.22;1.67;;;9.20;99.90;;;;;;5029132;28;20080;-68
2022/04/08 08:35:25;;;;;;;7.00;1.45;;;10.00;99.90;;;;;;5021977;28;20516;-68
2022/04/08 08:37:51;;;;;;;9.65;1.58;;;10.60;99.90;;;;;;5016680;28;20133;-68
2022/04/08 08:40:18;;;;;;;14.70;2.22;;;11.20;99.90;;;;;;5012275;28;20124;-68
2022/04/08 08:42:44;;;;;;;4.97;1.40;;;11.90;99.90;;;;;;5020952;28;20057;-68
2022/04/08 08:45:11;;;;;;;8.15;1.80;;;11.90;99.90;;;;;;5023897;28;20512;-69
2022/04/08 08:47:37;;;;;;;7.55;1.55;;;11.70;99.90;;;;;;5029402;28;20042;-69
2022/04/08 08:50:05;;;;;;;10.80;2.10;;;11.70;99.90;;;;;;5028280;28;20102;-68
2022/04/08 08:52:31;;;;;;;3.83;1.17;;;12.00;99.90;;;;;;5009827;28;20077;-69
2022/04/08 08:54:57;;;;;;;7.05;1.50;;;11.30;99.90;;;;;;5010016;28;20405;-68
2022/04/08 08:57:23;;;;;;;7.82;2.17;;;10.80;99.90;;;;;;5012651;28;20236;-68
2022/04/08 09:00:02;;;;;;;5.50;1.60;;;10.90;99.90;;;;;;5026191;28;20049;-68
2022/04/08 09:02:27;;;;;;;11.95;2.92;;;11.40;99.90;;;;;;5010345;28;20046;-68
2022/04/08 09:04:53;;;;;;;5.80;1.17;;;11.90;99.90;;;;;;5021539;28;20777;-68
2022/04/08 09:07:22;;;;;;;6.57;1.40;;;12.10;99.90;;;;;;5012364;28;20072;-68
2022/04/08 09:09:53;;;;;;;7.10;1.77;;;11.90;99.90;;;;;;5010474;28;20053;-68
2022/04/08 09:12:21;;;;;;;3.45;0.88;;;11.50;99.90;;;;;;5018115;28;20443;-68
2022/04/08 09:14:52;;;;;;;7.20;1.52;;;11.10;99.90;;;;;;5018523;28;20057;-68
2022/04/08 09:17:22;;;;;;;6.05;1.30;;;10.50;99.90;;;;;;5009340;28;20056;-68
2022/04/08 09:19:48;;;;;;;7.05;1.45;;;10.20;99.90;;;;;;5022171;28;20053;-68
2022/04/08 09:22:14;;;;;;;6.15;1.27;;;10.70;99.90;;;;;;5029643;28;20499;-68
2022/04/08 09:24:40;;;;;;;10.82;2.30;;;11.30;99.90;;;;;;5017879;28;20072;-68
2022/04/08 09:27:05;;;;;;;9.23;1.50;;;11.60;99.90;;;;;;5023848;28;20037;-68
2022/04/08 09:29:31;;;;;;;4.75;1.23;;;12.10;99.90;;;;;;5013802;28;20050;-68
2022/04/08 09:32:00;;;;;;;6.90;2.42;;;12.10;99.90;;;;;;5009575;28;20045;-68
2022/04/08 09:34:25;;;;;;;6.65;1.25;;;12.20;99.90;;;;;;5021691;28;20044;-68
2022/04/08 09:36:51;;;;;;;6.47;1.48;;;12.70;99.90;;;;;;5029135;28;20041;-68
2022/04/08 09:39:17;;;;;;;7.65;2.10;;;12.80;99.90;;;;;;5028376;28;20042;-68
2022/04/08 09:41:45;;;;;;;7.93;1.80;;;13.10;99.90;;;;;;5024468;28;20132;-68
2022/04/08 09:44:13;;;;;;;8.73;1.48;;;12.90;99.90;;;;;;5018948;28;20063;-68
2022/04/08 09:46:40;;;;;;;5.47;1.00;;;12.50;99.90;;;;;;5023887;28;20053;-68
2022/04/08 09:49:06;;;;;;;5.60;1.45;;;12.10;99.90;;;;;;5019764;28;20077;-68
2022/04/08 09:51:39;;;;;;;5.03;1.55;;;12.20;99.90;;;;;;5020877;28;20033;-68
2022/04/08 09:54:08;;;;;;;11.23;2.15;;;11.80;99.90;;;;;;5019519;28;20492;-68
2022/04/08 09:56:36;;;;;;;7.60;1.70;;;11.30;99.90;;;;;;5007999;28;20144;-68
2022/04/08 09:59:14;;;;;;;5.97;1.70;;;10.30;99.90;;;;;;5019235;28;20084;-68
2022/04/08 10:01:44;;;;;;;4.75;1.08;;;9.60;99.90;;;;;;5016143;28;20067;-68
2022/04/08 10:04:11;;;;;;;3.95;1.10;;;9.00;99.90;;;;;;5017071;28;20516;-68
2022/04/08 10:06:38;;;;;;;6.30;0.77;;;8.90;99.90;;;;;;5012393;28;20034;-68
2022/04/08 10:09:09;;;;;;;2.95;0.60;;;8.60;99.90;;;;;;5013374;28;20046;-68
2022/04/08 10:11:46;;;;;;;2.50;0.70;;;8.50;99.90;;;;;;5011842;28;20156;-68
2022/04/08 10:14:20;;;;;;;4.63;1.10;;;8.30;99.90;;;;;;5025660;28;20073;-68
2022/04/08 10:16:51;;;;;;;3.40;0.82;;;8.30;99.90;;;;;;5016926;28;20046;-68
2022/04/08 10:19:17;;;;;;;8.98;1.98;;;8.50;99.90;;;;;;5012465;28;20060;-68
2022/04/08 10:21:43;;;;;;;6.57;1.58;;;8.90;99.90;;;;;;5012625;28;20046;-68
2022/04/08 10:24:10;;;;;;;13.15;2.20;;;9.10;99.90;;;;;;5020796;28;20086;-68
2022/04/08 10:26:56;;;;;;;7.22;1.80;;;9.80;99.90;;;;;;5012590;28;20049;-68
2022/04/08 10:29:21;;;;;;;8.07;2.33;;;9.80;99.90;;;;;;5022811;28;20477;-68
2022/04/08 10:31:55;;;;;;;7.30;1.75;;;9.90;99.90;;;;;;5013213;28;20038;-68
2022/04/08 10:34:22;;;;;;;12.38;2.00;;;10.20;99.90;;;;;;5009876;28;20129;-68
2022/04/08 10:36:48;;;;;;;13.45;1.95;;;10.60;99.90;;;;;;5015998;28;20041;-68
2022/04/08 10:39:14;;;;;;;7.63;1.73;;;10.90;99.90;;;;;;5021009;28;20382;-68
2022/04/08 10:42:00;;;;;;;8.40;1.35;;;10.60;99.90;;;;;;5012462;28;20095;-68
2022/04/08 10:44:38;;;;;;;6.22;1.42;;;10.30;99.90;;;;;;5015121;28;20045;-68
2022/04/08 10:47:21;;;;;;;12.55;1.20;;;10.40;99.90;;;;;;5031692;28;20103;-68
2022/04/08 10:50:04;;;;;;;7.53;1.85;;;11.10;99.90;;;;;;5016045;28;20125;-68
2022/04/08 10:52:38;;;;;;;7.00;1.63;;;11.00;99.90;;;;;;5021326;28;20057;-68
2022/04/08 10:55:13;;;;;;;10.23;1.30;;;11.00;99.90;;;;;;5024557;28;20053;-68
2022/04/08 10:57:44;;;;;;;3.33;1.00;;;10.90;99.90;;;;;;5016785;28;20045;-68
2022/04/08 11:00:17;;;;;;;9.65;1.38;;;10.70;99.90;;;;;;5018107;28;20045;-68
2022/04/08 11:02:44;;;;;;;11.50;1.25;;;10.40;99.90;;;;;;5031520;28;20057;-68
2022/04/08 11:05:12;;;;;;;6.50;1.45;;;10.30;99.90;;;;;;5021007;28;20084;-68
2022/04/08 11:07:45;;;;;;;11.60;1.30;;;10.40;99.90;;;;;;5014409;28;20046;-68
2022/04/08 11:10:16;;;;;;;9.63;1.92;;;10.40;99.90;;;;;;5011361;28;20049;-68
2022/04/08 11:12:46;;;;;;;10.32;1.42;;;10.30;99.90;;;;;;5012354;28;20045;-68
2022/04/08 11:15:25;;;;;;;11.43;2.10;;;10.30;99.90;;;;;;5012565;28;20058;-68
2022/04/08 11:17:52;;;;;;;12.68;2.97;;;10.40;99.90;;;;;;5028757;28;20045;-68
2022/04/08 11:20:19;;;;;;;12.90;1.48;;;10.40;99.90;;;;;;5021915;28;20128;-68
2022/04/08 11:22:50;;;;;;;8.55;1.20;;;10.20;99.90;;;;;;5020044;28;20057;-68
2022/04/08 11:25:20;;;;;;;7.25;1.40;;;10.20;99.90;;;;;;5024081;28;20563;-68
2022/04/08 11:27:58;;;;;;;8.07;1.60;;;10.30;99.90;;;;;;5020894;28;20052;-68
2022/04/08 11:30:24;;;;;;;9.20;2.05;;;10.30;99.90;;;;;;5030446;28;20520;-68
2022/04/08 11:32:50;;;;;;;9.77;1.70;;;10.20;99.90;;;;;;5031943;28;20112;-68
2022/04/08 11:35:16;;;;;;;11.82;1.90;;;10.20;99.90;;;;;;5023410;28;20176;-68
2022/04/08 11:37:41;;;;;;;9.98;1.70;;;10.10;99.90;;;;;;5011194;28;20045;-68
2022/04/08 11:40:08;;;;;;;11.63;1.80;;;9.90;99.90;;;;;;5010497;28;20504;-68
2022/04/08 11:42:34;;;;;;;8.93;1.55;;;10.00;99.90;;;;;;5011315;28;20497;-68
2022/04/08 11:45:02;;;;;;;11.60;2.25;;;10.50;99.90;;;;;;5015128;28;20052;-68
2022/04/08 11:47:32;;;;;;;13.57;2.47;;;10.50;99.90;;;;;;5011436;28;20033;-68
2022/04/08 11:50:06;;;;;;;9.98;1.75;;;10.30;99.90;;;;;;5019327;28;20037;-68
2022/04/08 11:52:32;;;;;;;12.23;2.63;;;10.40;99.90;;;;;;5025534;28;20477;-68
2022/04/08 11:55:06;;;;;;;7.40;1.50;;;11.00;99.90;;;;;;5010250;28;20204;-68
2022/04/08 11:57:33;;;;;;;13.90;1.95;;;11.30;99.90;;;;;;5009112;28;20054;-68
2022/04/08 12:00:07;;;;;;;6.93;1.83;;;10.90;99.90;;;;;;5010940;28;20046;-69
2022/04/08 12:02:33;;;;;;;12.00;2.50;;;10.80;99.90;;;;;;5009645;28;20201;-69
2022/04/08 12:04:59;;;;;;;7.03;1.67;;;10.40;99.90;;;;;;5011724;28;20049;-68
2022/04/08 12:07:28;;;;;;;5.82;1.40;;;10.90;99.90;;;;;;5008322;28;20426;-68
2022/04/08 12:09:55;;;;;;;13.13;2.85;;;11.30;99.90;;;;;;5011499;28;20049;-68
2022/04/08 12:12:30;;;;;;;5.30;1.38;;;11.70;99.90;;;;;;5010110;28;20398;-68
2022/04/08 12:15:09;;;;;;;10.88;1.77;;;12.00;99.90;;;;;;5011374;28;20042;-68
2022/04/08 12:17:43;;;;;;;3.72;1.02;;;12.40;99.90;;;;;;5010615;28;20495;-68
2022/04/08 12:20:17;;;;;;;10.55;1.90;;;12.40;99.90;;;;;;5012308;28;20061;-68
2022/04/08 12:22:50;;;;;;;13.52;1.92;;;12.80;99.90;;;;;;5008637;28;20041;-69
2022/04/08 12:25:19;;;;;;;11.32;1.88;;;12.70;99.90;;;;;;5011055;28;20046;-69
2022/04/08 12:27:55;;;;;;;5.38;1.50;;;12.90;99.90;;;;;;5010700;28;20034;-69
2022/04/08 12:30:26;;;;;;;7.60;1.73;;;12.40;99.90;;;;;;5009736;28;20128;-68
2022/04/08 12:32:51;;;;;;;7.75;2.17;;;12.80;99.90;;;;;;5011196;28;20385;-69
2022/04/08 12:35:17;;;;;;;13.15;2.10;;;13.20;99.90;;;;;;5010105;28;20103;-69
2022/04/08 12:37:42;;;;;;;3.22;0.88;;;13.60;99.90;;;;;;5010302;28;20115;-69
2022/04/08 12:40:10;;;;;;;5.43;1.58;;;13.70;99.90;;;;;;5010357;28;20041;-68
2022/04/08 12:42:37;;;;;;;6.85;1.27;;;13.60;99.90;;;;;;5008129;28;20077;-69
2022/04/08 12:45:03;;;;;;;8.88;2.17;;;13.80;99.90;;;;;;5018787;28;20056;-68
2022/04/08 12:47:29;;;;;;;7.45;1.23;;;13.60;99.70;;;;;;5029601;28;20515;-68